Time;durP1;ratioP1;P1;durP2;ratioP2;P2;SDS_P1;SDS_P2;PMS_P1;PMS_P2;Temp;Humidity;BMP_temperature;BMP_pressure;BME280_temperature;BME280_humidity;BME280_pressure;Samples;Min_cycle;Max_cycle;Signal;HPM_P1;HPM_P2
2022/12/21 00:01:43;;;;;;;5.97;5.47;;;;;;;;;;5131395;27;20039;-58
2022/12/21 00:04:10;;;;;;;7.47;6.78;;;;;;;;;;5134876;27;20554;-58
2022/12/21 00:06:37;;;;;;;6.72;6.13;;;;;;;;;;5136456;27;20043;-58
2022/12/21 00:09:04;;;;;;;5.50;5.00;;;;;;;;;;5127734;27;20445;-58
2022/12/21 00:11:31;;;;;;;6.53;5.93;;;;;;;;;;5132418;27;20058;-58
2022/12/21 00:13:58;;;;;;;5.65;5.15;;;;;;;;;;5119127;27;20039;-58
2022/12/21 00:16:26;;;;;;;5.88;5.38;;;;;;;;;;5136928;27;20051;-58
2022/12/21 00:18:52;;;;;;;6.30;5.72;;;;;;;;;;5136768;27;20046;-58
2022/12/21 00:21:18;;;;;;;11.38;7.00;;;;;;;;;;5136762;27;20031;-58
2022/12/21 00:23:45;;;;;;;16.20;9.63;;;;;;;;;;5137981;27;20095;-58
2022/12/21 00:26:12;;;;;;;7.97;7.28;;;;;;;;;;5137682;27;20379;-58
2022/12/21 00:28:38;;;;;;;19.17;7.93;;;;;;;;;;5136909;27;20039;-58
2022/12/21 00:31:09;;;;;;;7.88;7.18;;;;;;;;;;5138750;27;20034;-57
2022/12/21 00:33:36;;;;;;;16.30;8.63;;;;;;;;;;5141684;27;20134;-58
2022/12/21 00:36:02;;;;;;;6.85;6.18;;;;;;;;;;5141582;27;20042;-58
2022/12/21 00:38:28;;;;;;;7.28;6.57;;;;;;;;;;5140700;27;20050;-58
2022/12/21 00:40:57;;;;;;;6.63;6.03;;;;;;;;;;5143013;27;20043;-58
2022/12/21 00:43:24;;;;;;;8.05;7.25;;;;;;;;;;5139951;27;20043;-58
2022/12/21 00:45:49;;;;;;;8.55;7.75;;;;;;;;;;5142488;27;20042;-58
2022/12/21 00:48:15;;;;;;;9.95;8.32;;;;;;;;;;5141763;27;20389;-58
2022/12/21 00:50:41;;;;;;;9.52;8.45;;;;;;;;;;5138569;27;20159;-58
2022/12/21 00:53:08;;;;;;;9.20;8.30;;;;;;;;;;5135688;27;20134;-58
2022/12/21 00:55:34;;;;;;;7.22;6.53;;;;;;;;;;5138090;27;20698;-58
2022/12/21 00:58:01;;;;;;;12.35;7.65;;;;;;;;;;5134090;27;20035;-58
2022/12/21 01:00:27;;;;;;;7.93;7.13;;;;;;;;;;5137678;27;20385;-58
2022/12/21 01:02:53;;;;;;;8.40;7.57;;;;;;;;;;5135472;27;20073;-58
2022/12/21 01:05:20;;;;;;;11.38;9.05;;;;;;;;;;5134471;27;20055;-58
2022/12/21 01:07:46;;;;;;;8.95;7.97;;;;;;;;;;5136510;27;20143;-58
2022/12/21 01:10:12;;;;;;;7.53;6.80;;;;;;;;;;5135009;27;20086;-58
2022/12/21 01:12:38;;;;;;;7.72;7.03;;;;;;;;;;5138457;27;20662;-58
2022/12/21 01:15:05;;;;;;;7.65;6.88;;;;;;;;;;5142222;27;20039;-58
2022/12/21 01:17:31;;;;;;;6.60;6.00;;;;;;;;;;5139334;27;20039;-58
2022/12/21 01:19:57;;;;;;;6.03;5.50;;;;;;;;;;5138971;27;20489;-58
2022/12/21 01:22:23;;;;;;;6.25;5.65;;;;;;;;;;5140274;27;20255;-59
2022/12/21 01:24:49;;;;;;;5.25;4.75;;;;;;;;;;5138658;27;20370;-57
2022/12/21 01:27:15;;;;;;;6.20;4.88;;;;;;;;;;5141195;27;20030;-58
2022/12/21 01:29:41;;;;;;;4.88;4.47;;;;;;;;;;5140570;27;20507;-58
2022/12/21 01:32:07;;;;;;;5.30;4.82;;;;;;;;;;5141035;27;20053;-57
2022/12/21 01:34:33;;;;;;;4.80;4.40;;;;;;;;;;5141689;27;20374;-58
2022/12/21 01:36:59;;;;;;;5.03;4.63;;;;;;;;;;5134315;27;20066;-58
2022/12/21 01:39:26;;;;;;;5.53;5.00;;;;;;;;;;5134110;27;20051;-58
2022/12/21 01:41:54;;;;;;;4.65;4.22;;;;;;;;;;5136917;27;20045;-58
2022/12/21 01:44:38;;;;;;;4.38;3.72;;;;;;;;;;5137381;27;20058;-59
2022/12/21 01:47:04;;;;;;;5.20;4.70;;;;;;;;;;5119471;27;20078;-58
2022/12/21 01:49:31;;;;;;;5.28;4.78;;;;;;;;;;5139501;27;20038;-58
2022/12/21 01:51:59;;;;;;;5.13;4.63;;;;;;;;;;5138000;27;20065;-57
2022/12/21 01:54:28;;;;;;;4.60;4.20;;;;;;;;;;5136445;27;20043;-58
2022/12/21 01:56:57;;;;;;;4.88;4.32;;;;;;;;;;5140659;27;20075;-58
2022/12/21 01:59:26;;;;;;;4.40;4.00;;;;;;;;;;5134867;27;20079;-58
2022/12/21 02:01:52;;;;;;;5.40;4.90;;;;;;;;;;5115345;27;20066;-58
2022/12/21 02:04:18;;;;;;;6.30;5.70;;;;;;;;;;5134460;27;20050;-58
2022/12/21 02:06:48;;;;;;;5.97;5.38;;;;;;;;;;5139738;27;20032;-58
2022/12/21 02:09:15;;;;;;;6.43;5.82;;;;;;;;;;5140438;27;20054;-58
2022/12/21 02:11:41;;;;;;;5.93;5.32;;;;;;;;;;5140177;27;20305;-58
2022/12/21 02:14:10;;;;;;;6.18;5.57;;;;;;;;;;5139796;27;20054;-58
2022/12/21 02:16:45;;;;;;;6.55;5.45;;;;;;;;;;5141129;27;20085;-57
2022/12/21 02:19:31;;;;;;;4.30;3.90;;;;;;;;;;5140013;27;20039;-58
2022/12/21 02:22:11;;;;;;;5.95;5.32;;;;;;;;;;5143016;27;20051;-58
2022/12/21 02:24:46;;;;;;;5.38;4.88;;;;;;;;;;5141222;27;20492;-58
2022/12/21 02:27:18;;;;;;;6.13;5.53;;;;;;;;;;5139699;27;20450;-58
2022/12/21 02:30:00;;;;;;;5.68;4.85;;;;;;;;;;5136975;27;20135;-58
2022/12/21 02:32:35;;;;;;;4.50;4.10;;;;;;;;;;5138709;27;20043;-58
2022/12/21 02:35:08;;;;;;;5.15;4.65;;;;;;;;;;5136641;27;20042;-58
2022/12/21 02:37:37;;;;;;;6.15;5.55;;;;;;;;;;5135724;27;20405;-57
2022/12/21 02:40:06;;;;;;;4.90;4.40;;;;;;;;;;5132931;27;20049;-57
2022/12/21 02:45:31;;;;;;;4.47;4.07;;;;;;;;;;5138246;27;20051;-57
2022/12/21 02:48:19;;;;;;;4.53;4.13;;;;;;;;;;5141062;27;20042;-57
2022/12/21 02:50:49;;;;;;;3.97;3.67;;;;;;;;;;5136644;27;20050;-57
2022/12/21 02:53:19;;;;;;;3.75;3.38;;;;;;;;;;5134738;27;20078;-57
2022/12/21 02:55:45;;;;;;;3.45;3.15;;;;;;;;;;5136197;27;20045;-58
2022/12/21 02:58:19;;;;;;;2.63;2.42;;;;;;;;;;5131887;27;20045;-58
2022/12/21 03:00:52;;;;;;;2.90;2.63;;;;;;;;;;5136614;27;20129;-58
2022/12/21 03:06:20;;;;;;;2.92;2.72;;;;;;;;;;5137273;27;20039;-58
2022/12/21 03:09:05;;;;;;;2.85;2.65;;;;;;;;;;5139155;27;20054;-58
2022/12/21 03:11:36;;;;;;;4.20;3.80;;;;;;;;;;5134576;27;20067;-58
2022/12/21 03:14:11;;;;;;;3.30;3.00;;;;;;;;;;5135095;27;20381;-58
2022/12/21 03:16:44;;;;;;;3.55;3.25;;;;;;;;;;5140244;27;20126;-58
2022/12/21 03:19:32;;;;;;;3.17;2.88;;;;;;;;;;5137916;27;20043;-58
2022/12/21 03:22:04;;;;;;;3.40;3.10;;;;;;;;;;5132055;27;20669;-59
2022/12/21 03:24:39;;;;;;;3.38;3.08;;;;;;;;;;5135381;27;20042;-58
2022/12/21 03:27:17;;;;;;;2.80;2.58;;;;;;;;;;5136999;27;20091;-58
2022/12/21 03:29:52;;;;;;;4.32;3.95;;;;;;;;;;5135023;27;20405;-58
2022/12/21 03:32:24;;;;;;;5.80;3.58;;;;;;;;;;5131529;27;20057;-58
2022/12/21 03:34:51;;;;;;;6.20;3.55;;;;;;;;;;5133444;27;20038;-58
2022/12/21 03:37:17;;;;;;;7.68;3.83;;;;;;;;;;5132054;27;20556;-58
2022/12/21 03:39:45;;;;;;;4.20;3.80;;;;;;;;;;5133591;27;20126;-57
2022/12/21 03:42:15;;;;;;;3.35;3.05;;;;;;;;;;5131739;27;20493;-58
2022/12/21 03:44:43;;;;;;;3.17;2.88;;;;;;;;;;5133617;27;20063;-58
2022/12/21 03:47:16;;;;;;;3.05;2.85;;;;;;;;;;5137867;27;20038;-58
2022/12/21 03:49:45;;;;;;;3.40;3.10;;;;;;;;;;5140008;27;20187;-58
2022/12/21 03:52:19;;;;;;;3.22;2.92;;;;;;;;;;5137470;27;20034;-58
2022/12/21 03:54:49;;;;;;;3.17;2.95;;;;;;;;;;5136370;27;20413;-58
2022/12/21 03:57:16;;;;;;;3.08;2.85;;;;;;;;;;5132285;27;20031;-58
2022/12/21 03:59:43;;;;;;;2.90;2.60;;;;;;;;;;5133483;27;20045;-58
2022/12/21 04:02:15;;;;;;;3.40;3.10;;;;;;;;;;5131752;27;20074;-57
2022/12/21 04:04:54;;;;;;;3.15;2.90;;;;;;;;;;5140032;27;20035;-58
2022/12/21 04:07:24;;;;;;;2.70;2.50;;;;;;;;;;5136904;27;20122;-58
2022/12/21 04:10:00;;;;;;;2.60;2.40;;;;;;;;;;5138417;27;20051;-57
2022/12/21 04:12:36;;;;;;;3.05;2.75;;;;;;;;;;5134836;27;20501;-58
2022/12/21 04:15:02;;;;;;;2.63;2.42;;;;;;;;;;5135202;27;20540;-58
2022/12/21 04:17:28;;;;;;;3.67;2.60;;;;;;;;;;5133581;27;20047;-58
2022/12/21 04:19:57;;;;;;;3.40;3.08;;;;;;;;;;5131995;27;20042;-58
2022/12/21 04:28:07;;;;;;;5.85;4.65;;;;;;;;;;5134711;27;20177;-58
2022/12/21 04:30:33;;;;;;;4.05;3.70;;;;;;;;;;5134665;27;20075;-58
2022/12/21 04:32:59;;;;;;;9.38;4.43;;;;;;;;;;5137633;27;20039;-58
2022/12/21 04:35:25;;;;;;;4.60;4.07;;;;;;;;;;5131929;27;20042;-58
2022/12/21 04:37:51;;;;;;;5.25;4.75;;;;;;;;;;5132351;27;20397;-58
2022/12/21 04:40:17;;;;;;;9.65;4.85;;;;;;;;;;5131397;27;20075;-58
2022/12/21 04:42:43;;;;;;;4.38;3.97;;;;;;;;;;5136929;27;20035;-58
2022/12/21 04:45:09;;;;;;;4.30;3.92;;;;;;;;;;5137837;27;20258;-57
2022/12/21 04:47:35;;;;;;;3.35;2.90;;;;;;;;;;5135938;27;20059;-58
2022/12/21 04:50:01;;;;;;;3.92;3.63;;;;;;;;;;5138550;27;20077;-58
2022/12/21 04:52:27;;;;;;;3.83;3.42;;;;;;;;;;5136543;27;20043;-58
2022/12/21 04:54:53;;;;;;;3.95;2.92;;;;;;;;;;5138823;27;20039;-57
2022/12/21 04:57:19;;;;;;;3.50;3.17;;;;;;;;;;5136541;27;20043;-58
2022/12/21 04:59:45;;;;;;;3.22;2.92;;;;;;;;;;5133895;27;20039;-58
2022/12/21 05:02:12;;;;;;;3.55;3.15;;;;;;;;;;5131101;27;20383;-58
2022/12/21 05:04:38;;;;;;;4.15;3.75;;;;;;;;;;5132895;27;20054;-57
2022/12/21 05:07:04;;;;;;;3.47;3.17;;;;;;;;;;5130817;27;20039;-57
2022/12/21 05:09:30;;;;;;;4.43;3.78;;;;;;;;;;5132478;27;20256;-58
2022/12/21 05:11:56;;;;;;;3.22;2.92;;;;;;;;;;5131790;27;20043;-57
2022/12/21 05:14:23;;;;;;;3.25;2.92;;;;;;;;;;5136141;27;20046;-57
2022/12/21 05:16:49;;;;;;;4.15;3.22;;;;;;;;;;5136746;27;20035;-58
2022/12/21 05:19:15;;;;;;;2.90;2.60;;;;;;;;;;5133099;27;20449;-59
2022/12/21 05:21:41;;;;;;;3.70;3.35;;;;;;;;;;5136544;27;20040;-57
2022/12/21 05:24:07;;;;;;;3.97;3.58;;;;;;;;;;5137748;27;20562;-58
2022/12/21 05:26:33;;;;;;;3.20;2.90;;;;;;;;;;5136452;27;20031;-57
2022/12/21 05:28:59;;;;;;;3.88;3.58;;;;;;;;;;5140201;27;20042;-58
2022/12/21 05:31:25;;;;;;;2.95;2.58;;;;;;;;;;5133695;27;20039;-58
2022/12/21 05:33:52;;;;;;;2.67;2.45;;;;;;;;;;5138443;27;20473;-58
2022/12/21 05:36:18;;;;;;;2.65;2.25;;;;;;;;;;5139410;27;20497;-57
2022/12/21 05:38:44;;;;;;;3.10;2.42;;;;;;;;;;5135355;27;20039;-58
2022/12/21 05:41:11;;;;;;;3.00;2.80;;;;;;;;;;5136990;27;20393;-57
2022/12/21 05:43:37;;;;;;;3.00;2.70;;;;;;;;;;5136690;27;20042;-58
2022/12/21 05:46:07;;;;;;;4.70;3.60;;;;;;;;;;5135076;27;20035;-58
2022/12/21 05:48:33;;;;;;;4.07;3.67;;;;;;;;;;5139616;27;20035;-58
2022/12/21 05:50:59;;;;;;;3.88;3.17;;;;;;;;;;5135704;27;20122;-57
2022/12/21 05:53:25;;;;;;;5.68;4.20;;;;;;;;;;5135646;27;20031;-58
2022/12/21 05:55:52;;;;;;;4.10;3.47;;;;;;;;;;5141664;27;20038;-57
2022/12/21 05:58:19;;;;;;;4.93;3.95;;;;;;;;;;5135391;27;20044;-57
2022/12/21 06:00:45;;;;;;;3.72;3.42;;;;;;;;;;5137196;27;20454;-57
2022/12/21 06:03:11;;;;;;;5.40;4.50;;;;;;;;;;5136872;27;20405;-57
2022/12/21 06:05:37;;;;;;;5.28;4.45;;;;;;;;;;5140451;27;20096;-58
2022/12/21 06:08:04;;;;;;;5.20;3.67;;;;;;;;;;5137976;27;20491;-58
2022/12/21 06:10:31;;;;;;;4.35;3.10;;;;;;;;;;5133680;27;20127;-58
2022/12/21 06:12:57;;;;;;;5.13;3.47;;;;;;;;;;5131419;27;20074;-57
2022/12/21 06:15:23;;;;;;;2.58;2.38;;;;;;;;;;5132046;27;20093;-57
2022/12/21 06:17:49;;;;;;;3.65;3.20;;;;;;;;;;5132570;27;20041;-58
2022/12/21 06:20:18;;;;;;;3.58;3.17;;;;;;;;;;5133893;27;20450;-58
2022/12/21 06:22:44;;;;;;;3.67;3.38;;;;;;;;;;5135306;27;20122;-57
2022/12/21 06:25:10;;;;;;;4.28;3.47;;;;;;;;;;5137227;27;20385;-58
2022/12/21 06:27:36;;;;;;;3.53;3.22;;;;;;;;;;5139214;27;20035;-57
2022/12/21 06:30:02;;;;;;;4.38;3.20;;;;;;;;;;5139843;27;20046;-57
2022/12/21 06:32:28;;;;;;;3.97;3.50;;;;;;;;;;5137559;27;20038;-58
2022/12/21 06:34:54;;;;;;;2.83;2.55;;;;;;;;;;5129481;27;20046;-57
2022/12/21 06:37:20;;;;;;;5.70;4.60;;;;;;;;;;5136325;27;20115;-58
2022/12/21 06:39:46;;;;;;;4.72;4.07;;;;;;;;;;5139434;27;20043;-58
2022/12/21 06:42:12;;;;;;;5.13;4.13;;;;;;;;;;5132636;27;20485;-58
2022/12/21 06:44:38;;;;;;;4.28;3.85;;;;;;;;;;5136024;27;20050;-58
2022/12/21 06:47:04;;;;;;;6.60;4.40;;;;;;;;;;5140656;27;20161;-58
2022/12/21 06:49:31;;;;;;;5.05;3.75;;;;;;;;;;5132911;27;20043;-58
2022/12/21 06:51:56;;;;;;;4.35;3.95;;;;;;;;;;5138016;27;20066;-58
2022/12/21 06:54:22;;;;;;;9.90;3.63;;;;;;;;;;5134342;27;20471;-58
2022/12/21 06:56:48;;;;;;;3.55;3.22;;;;;;;;;;5137577;27;20509;-57
2022/12/21 06:59:14;;;;;;;4.93;3.63;;;;;;;;;;5134771;27;20087;-58
2022/12/21 07:01:40;;;;;;;4.57;4.10;;;;;;;;;;5133547;27;20401;-58
2022/12/21 07:04:06;;;;;;;5.43;4.18;;;;;;;;;;5140336;27;20038;-57
2022/12/21 07:06:33;;;;;;;4.43;3.72;;;;;;;;;;5130777;27;20083;-58
2022/12/21 07:08:59;;;;;;;5.80;4.30;;;;;;;;;;5139090;27;20103;-57
2022/12/21 07:11:26;;;;;;;3.97;3.40;;;;;;;;;;5133721;27;20063;-57
2022/12/21 07:13:53;;;;;;;5.90;4.80;;;;;;;;;;5134477;27;20319;-58
2022/12/21 07:16:19;;;;;;;4.57;4.15;;;;;;;;;;5132513;27;20526;-58
2022/12/21 07:18:45;;;;;;;5.28;4.00;;;;;;;;;;5134862;27;20551;-58
2022/12/21 07:21:13;;;;;;;4.72;3.95;;;;;;;;;;5132049;27;20042;-57
2022/12/21 07:23:39;;;;;;;4.88;4.38;;;;;;;;;;5136216;27;20114;-58
2022/12/21 07:26:10;;;;;;;5.13;4.22;;;;;;;;;;5134392;27;20038;-57
2022/12/21 07:28:36;;;;;;;5.85;4.72;;;;;;;;;;5135277;27;20120;-58
2022/12/21 07:31:12;;;;;;;4.57;3.90;;;;;;;;;;5133715;27;20098;-57
2022/12/21 07:33:40;;;;;;;5.75;4.43;;;;;;;;;;5138889;27;20053;-58
2022/12/21 07:36:06;;;;;;;7.32;4.65;;;;;;;;;;5137994;27;20561;-57
2022/12/21 07:38:33;;;;;;;6.18;4.70;;;;;;;;;;5128284;27;20039;-58
2022/12/21 07:41:00;;;;;;;6.60;4.95;;;;;;;;;;5134187;27;20382;-57
2022/12/21 07:43:26;;;;;;;8.73;6.25;;;;;;;;;;5128177;27;20058;-58
2022/12/21 07:45:52;;;;;;;6.90;5.40;;;;;;;;;;5134476;27;20486;-58
2022/12/21 07:48:18;;;;;;;7.00;5.13;;;;;;;;;;5135258;27;20047;-57
2022/12/21 07:50:46;;;;;;;9.25;6.40;;;;;;;;;;5130169;27;20039;-59
2022/12/21 07:53:12;;;;;;;7.07;5.53;;;;;;;;;;5131847;27;20042;-57
2022/12/21 07:55:38;;;;;;;8.50;6.03;;;;;;;;;;5135287;27;20031;-57
2022/12/21 07:58:04;;;;;;;7.85;5.85;;;;;;;;;;5135536;27;20459;-57
2022/12/21 08:00:30;;;;;;;9.10;7.07;;;;;;;;;;5133640;27;20051;-58
2022/12/21 08:02:56;;;;;;;7.78;6.05;;;;;;;;;;5131667;27;20072;-57
2022/12/21 08:05:22;;;;;;;8.18;6.00;;;;;;;;;;5136377;27;20038;-57
2022/12/21 08:07:48;;;;;;;8.05;5.93;;;;;;;;;;5133741;27;20054;-58
2022/12/21 08:10:15;;;;;;;8.95;7.32;;;;;;;;;;5135401;27;20350;-58
2022/12/21 08:12:41;;;;;;;9.35;6.38;;;;;;;;;;5134783;27;20576;-58
2022/12/21 08:15:08;;;;;;;9.13;6.85;;;;;;;;;;5131789;27;20553;-58
2022/12/21 08:17:34;;;;;;;10.32;7.10;;;;;;;;;;5129499;27;20579;-58
2022/12/21 08:20:00;;;;;;;9.85;7.50;;;;;;;;;;5127419;27;20043;-57
2022/12/21 08:22:26;;;;;;;10.30;8.45;;;;;;;;;;5127610;27;20047;-57
2022/12/21 08:24:52;;;;;;;11.93;8.43;;;;;;;;;;5125712;27;20039;-57
2022/12/21 08:27:18;;;;;;;11.90;8.20;;;;;;;;;;5128364;27;20039;-57
2022/12/21 08:29:44;;;;;;;11.23;8.82;;;;;;;;;;5125761;27;20388;-57
2022/12/21 08:32:10;;;;;;;10.77;8.25;;;;;;;;;;5130271;27;20035;-57
2022/12/21 08:34:36;;;;;;;11.90;7.80;;;;;;;;;;5126687;27;20039;-57
2022/12/21 08:37:02;;;;;;;11.48;8.98;;;;;;;;;;5128009;27;20063;-57
2022/12/21 08:39:29;;;;;;;10.50;8.27;;;;;;;;;;5126132;27;20043;-58
2022/12/21 08:41:54;;;;;;;8.82;7.35;;;;;;;;;;5126607;27;20038;-57
2022/12/21 08:44:20;;;;;;;10.82;8.02;;;;;;;;;;5126744;27;20043;-57
2022/12/21 08:46:47;;;;;;;10.02;8.10;;;;;;;;;;5128842;27;20467;-57
2022/12/21 08:49:13;;;;;;;8.80;6.85;;;;;;;;;;5134604;27;20768;-57
2022/12/21 08:51:39;;;;;;;9.20;7.43;;;;;;;;;;5126626;27;20057;-57
2022/12/21 08:54:06;;;;;;;9.90;8.18;;;;;;;;;;5127794;27;20031;-57
2022/12/21 08:56:32;;;;;;;11.60;7.85;;;;;;;;;;5128810;27;20301;-57
2022/12/21 08:59:08;;;;;;;11.02;8.55;;;;;;;;;;5132574;27;20058;-58
2022/12/21 09:01:34;;;;;;;8.50;7.60;;;;;;;;;;5130299;27;20081;-52
2022/12/21 09:04:01;;;;;;;10.48;8.57;;;;;;;;;;5129202;27;20054;-57
2022/12/21 09:06:27;;;;;;;8.32;7.30;;;;;;;;;;5129195;27;20406;-59
2022/12/21 09:08:53;;;;;;;12.70;8.30;;;;;;;;;;5131318;27;20612;-58
2022/12/21 09:11:20;;;;;;;11.05;7.75;;;;;;;;;;5133138;27;20046;-57
2022/12/21 09:13:46;;;;;;;11.13;8.77;;;;;;;;;;5117300;27;20091;-58
2022/12/21 09:16:12;;;;;;;12.70;8.77;;;;;;;;;;5133054;27;20031;-58
2022/12/21 09:18:38;;;;;;;12.23;9.05;;;;;;;;;;5141635;27;20503;-58
2022/12/21 09:21:04;;;;;;;11.93;8.57;;;;;;;;;;5149825;27;20043;-58
2022/12/21 09:23:30;;;;;;;13.73;9.05;;;;;;;;;;5149469;27;20046;-58
2022/12/21 09:25:56;;;;;;;11.57;7.78;;;;;;;;;;5130394;27;20035;-58
2022/12/21 09:28:23;;;;;;;10.15;8.30;;;;;;;;;;5129031;27;20045;-58
2022/12/21 09:30:49;;;;;;;14.52;10.02;;;;;;;;;;5134305;27;20053;-58
2022/12/21 09:33:15;;;;;;;13.40;8.40;;;;;;;;;;5141849;27;20039;-58
2022/12/21 09:35:41;;;;;;;12.35;8.25;;;;;;;;;;5129038;27;20450;-58
2022/12/21 09:38:08;;;;;;;14.52;9.85;;;;;;;;;;5132150;27;20141;-58
2022/12/21 09:40:34;;;;;;;13.07;9.25;;;;;;;;;;5122249;27;20035;-58
2022/12/21 09:43:19;;;;;;;12.90;9.93;;;;;;;;;;5127882;27;20528;-58
2022/12/21 09:45:55;;;;;;;13.18;8.77;;;;;;;;;;5135636;27;20497;-57
2022/12/21 09:48:27;;;;;;;11.90;8.60;;;;;;;;;;5127676;27;20462;-58
2022/12/21 09:51:09;;;;;;;11.23;8.50;;;;;;;;;;5128040;27;20043;-58
2022/12/21 09:53:42;;;;;;;10.23;7.40;;;;;;;;;;5132494;27;20119;-57
2022/12/21 09:56:10;;;;;;;12.10;8.90;;;;;;;;;;5129118;27;20103;-57
2022/12/21 09:58:42;;;;;;;13.07;9.23;;;;;;;;;;5141304;27;20043;-57
2022/12/21 10:01:28;;;;;;;16.33;10.70;;;;;;;;;;5135708;27;20088;-58
2022/12/21 10:04:13;;;;;;;17.70;12.15;;;;;;;;;;5122652;27;20038;-58
2022/12/21 10:06:51;;;;;;;21.42;11.90;;;;;;;;;;5139845;27;20501;-58
2022/12/21 10:09:20;;;;;;;21.92;12.85;;;;;;;;;;5144382;27;20557;-58
2022/12/21 10:11:52;;;;;;;18.95;11.88;;;;;;;;;;5137673;27;20066;-58
2022/12/21 10:14:36;;;;;;;19.75;12.27;;;;;;;;;;5127931;27;20485;-58
2022/12/21 10:17:09;;;;;;;22.55;13.30;;;;;;;;;;5128667;27;20051;-58
2022/12/21 10:19:48;;;;;;;20.27;12.65;;;;;;;;;;5134539;27;20031;-59
2022/12/21 10:22:19;;;;;;;22.05;13.18;;;;;;;;;;5138206;27;20099;-58
2022/12/21 10:24:48;;;;;;;26.80;16.15;;;;;;;;;;5136150;27;20031;-58
2022/12/21 10:27:17;;;;;;;21.08;14.85;;;;;;;;;;5130918;27;20046;-58
2022/12/21 10:29:47;;;;;;;24.17;14.32;;;;;;;;;;5136521;27;20180;-58
2022/12/21 10:32:14;;;;;;;23.70;14.82;;;;;;;;;;5132562;27;20035;-58
2022/12/21 10:34:46;;;;;;;28.67;17.38;;;;;;;;;;5130953;27;20091;-58
2022/12/21 10:37:14;;;;;;;30.35;17.92;;;;;;;;;;5135735;27;20050;-59
2022/12/21 10:39:40;;;;;;;27.73;17.67;;;;;;;;;;5129297;27;20049;-58
2022/12/21 10:42:13;;;;;;;26.17;15.93;;;;;;;;;;5127534;27;20074;-57
2022/12/21 10:44:40;;;;;;;24.55;15.10;;;;;;;;;;5136589;27;20035;-57
2022/12/21 10:47:20;;;;;;;23.42;15.27;;;;;;;;;;5138055;27;20392;-58
2022/12/21 10:50:03;;;;;;;24.55;16.25;;;;;;;;;;5127714;27;20043;-57
2022/12/21 10:52:32;;;;;;;31.48;19.27;;;;;;;;;;5137410;27;20082;-57
2022/12/21 10:54:58;;;;;;;29.30;17.95;;;;;;;;;;5129950;27;20448;-57
2022/12/21 10:57:29;;;;;;;27.75;17.77;;;;;;;;;;5130241;27;20039;-59
2022/12/21 10:59:55;;;;;;;27.20;17.10;;;;;;;;;;5130422;27;20397;-58
2022/12/21 11:02:35;;;;;;;25.70;16.80;;;;;;;;;;5133119;27;20039;-58
2022/12/21 11:05:01;;;;;;;28.30;17.77;;;;;;;;;;5130337;27;20049;-58
2022/12/21 11:07:30;;;;;;;27.40;16.92;;;;;;;;;;5139905;27;20086;-58
2022/12/21 11:10:00;;;;;;;28.17;16.27;;;;;;;;;;5147107;27;20111;-58
2022/12/21 11:12:26;;;;;;;24.02;16.52;;;;;;;;;;5131161;27;20122;-58
2022/12/21 11:14:53;;;;;;;22.70;15.65;;;;;;;;;;5148121;27;20053;-58
2022/12/21 11:17:27;;;;;;;26.13;15.90;;;;;;;;;;5144998;27;20063;-58
2022/12/21 11:20:07;;;;;;;25.27;15.85;;;;;;;;;;5143575;27;20129;-58
2022/12/21 11:22:33;;;;;;;26.17;14.82;;;;;;;;;;5140716;27;20039;-58
2022/12/21 11:25:00;;;;;;;26.55;15.82;;;;;;;;;;5129304;27;20409;-58
2022/12/21 11:27:26;;;;;;;25.25;16.20;;;;;;;;;;5137269;27;20072;-57
2022/12/21 11:29:58;;;;;;;25.08;13.93;;;;;;;;;;5145123;27;20042;-58
2022/12/21 11:32:25;;;;;;;26.07;15.13;;;;;;;;;;5136941;27;20050;-58
2022/12/21 11:34:57;;;;;;;28.58;16.00;;;;;;;;;;5136855;27;20800;-58
2022/12/21 11:37:36;;;;;;;26.85;16.77;;;;;;;;;;5137148;27;20049;-58
2022/12/21 11:40:11;;;;;;;24.90;15.52;;;;;;;;;;5144605;27;20042;-58
2022/12/21 11:42:50;;;;;;;23.38;13.63;;;;;;;;;;5146614;27;20034;-58
2022/12/21 11:45:17;;;;;;;22.67;14.15;;;;;;;;;;5146719;27;20031;-58
2022/12/21 11:48:02;;;;;;;22.40;13.55;;;;;;;;;;5148135;27;20309;-58
2022/12/21 11:50:32;;;;;;;24.08;14.55;;;;;;;;;;5146875;27;20134;-58
2022/12/21 11:53:28;;;;;;;30.63;16.52;;;;;;;;;;5129045;27;20405;-58
2022/12/21 11:55:54;;;;;;;29.67;14.95;;;;;;;;;;5091014;27;20079;-58
2022/12/21 11:58:23;;;;;;;20.80;12.93;;;;;;;;;;5146591;27;20433;-58
2022/12/21 12:00:55;;;;;;;31.30;15.32;;;;;;;;;;5135733;27;20043;-58
2022/12/21 12:03:33;;;;;;;29.15;14.88;;;;;;;;;;5134536;27;20057;-58
2022/12/21 12:06:18;;;;;;;29.45;13.95;;;;;;;;;;5140944;27;20078;-58
2022/12/21 12:09:02;;;;;;;27.48;14.50;;;;;;;;;;5126277;27;20094;-58
2022/12/21 12:11:36;;;;;;;27.98;14.13;;;;;;;;;;5139769;27;20492;-58
2022/12/21 12:14:27;;;;;;;26.98;13.73;;;;;;;;;;5134252;27;20474;-58
2022/12/21 12:17:15;;;;;;;24.30;13.95;;;;;;;;;;5135291;27;20070;-58
2022/12/21 12:20:00;;;;;;;25.08;13.65;;;;;;;;;;5145420;27;20042;-58
2022/12/21 12:22:49;;;;;;;21.70;12.43;;;;;;;;;;5125688;28;20075;-58
2022/12/21 12:25:44;;;;;;;24.40;11.82;;;;;;;;;;5125337;28;20055;-58
2022/12/21 12:28:13;;;;;;;27.92;13.00;;;;;;;;;;5138097;27;20086;-58
2022/12/21 12:30:54;;;;;;;23.15;11.75;;;;;;;;;;5151124;27;20039;-58
2022/12/21 12:33:29;;;;;;;24.42;11.75;;;;;;;;;;5150289;27;20046;-59
2022/12/21 12:36:07;;;;;;;20.65;10.70;;;;;;;;;;5150931;27;20034;-58
2022/12/21 12:38:43;;;;;;;19.60;12.63;;;;;;;;;;5130156;27;20439;-58
2022/12/21 12:41:28;;;;;;;21.85;11.85;;;;;;;;;;5129944;27;20054;-59
2022/12/21 12:44:29;;;;;;;25.20;12.60;;;;;;;;;;5130745;27;20116;-58
2022/12/21 12:47:01;;;;;;;19.70;10.57;;;;;;;;;;5085954;28;20055;-59
2022/12/21 12:49:27;;;;;;;21.30;12.25;;;;;;;;;;5123005;27;20051;-59
2022/12/21 12:52:00;;;;;;;18.42;10.40;;;;;;;;;;5130223;27;20187;-59
2022/12/21 12:54:39;;;;;;;22.63;11.75;;;;;;;;;;5129499;27;20035;-58
2022/12/21 12:57:15;;;;;;;25.52;11.25;;;;;;;;;;5130436;27;20043;-59
2022/12/21 12:59:48;;;;;;;24.20;11.68;;;;;;;;;;5130244;27;20074;-59
2022/12/21 13:02:30;;;;;;;22.60;13.00;;;;;;;;;;5110836;27;20077;-59
2022/12/21 13:05:02;;;;;;;21.20;11.70;;;;;;;;;;5130487;27;20039;-59
2022/12/21 13:07:31;;;;;;;24.00;11.57;;;;;;;;;;5130009;27;20047;-59
2022/12/21 13:09:57;;;;;;;30.33;12.98;;;;;;;;;;5129222;27;20107;-59
2022/12/21 13:12:29;;;;;;;20.48;12.00;;;;;;;;;;5129501;27;20047;-58
2022/12/21 13:14:55;;;;;;;25.02;13.38;;;;;;;;;;5129012;27;20070;-58
2022/12/21 13:17:30;;;;;;;26.60;14.50;;;;;;;;;;5139730;27;20099;-59
2022/12/21 13:19:58;;;;;;;35.35;14.60;;;;;;;;;;5129350;27;20039;-58
2022/12/21 13:22:26;;;;;;;24.13;14.88;;;;;;;;;;5126856;27;20046;-59
2022/12/21 13:24:55;;;;;;;23.00;15.27;;;;;;;;;;5129146;27;20043;-58
2022/12/21 13:27:26;;;;;;;24.42;14.45;;;;;;;;;;5129226;27;20035;-59
2022/12/21 13:30:11;;;;;;;25.23;14.88;;;;;;;;;;5129115;27;20074;-59
2022/12/21 13:32:39;;;;;;;23.25;15.27;;;;;;;;;;5129633;27;20053;-58
2022/12/21 13:35:14;;;;;;;26.15;15.48;;;;;;;;;;5129546;27;20050;-58
2022/12/21 13:37:41;;;;;;;25.27;14.52;;;;;;;;;;5129257;27;20114;-58
2022/12/21 13:40:13;;;;;;;16.80;12.13;;;;;;;;;;5128648;27;20092;-59
2022/12/21 13:42:51;;;;;;;20.13;13.20;;;;;;;;;;5129644;27;20050;-58
2022/12/21 13:45:18;;;;;;;19.67;13.20;;;;;;;;;;5128438;27;20047;-58
2022/12/21 13:47:45;;;;;;;21.02;14.65;;;;;;;;;;5129401;27;20574;-58
2022/12/21 13:50:11;;;;;;;23.08;15.40;;;;;;;;;;5139409;27;20488;-59
2022/12/21 13:52:45;;;;;;;26.77;15.98;;;;;;;;;;5137517;27;20037;-58
2022/12/21 13:55:17;;;;;;;22.27;17.30;;;;;;;;;;5137288;27;20107;-59
2022/12/21 13:57:52;;;;;;;20.35;16.95;;;;;;;;;;5136589;27;20095;-58
2022/12/21 14:00:23;;;;;;;26.23;15.77;;;;;;;;;;5140168;27;20046;-58
2022/12/21 14:03:05;;;;;;;23.10;15.25;;;;;;;;;;5136816;27;20046;-59
2022/12/21 14:05:36;;;;;;;26.33;17.13;;;;;;;;;;5130450;27;20043;-59
2022/12/21 14:08:18;;;;;;;20.83;14.93;;;;;;;;;;5134765;27;20485;-59
2022/12/21 14:10:47;;;;;;;23.40;16.52;;;;;;;;;;5129025;27;20058;-59
2022/12/21 14:13:22;;;;;;;23.55;15.65;;;;;;;;;;5130072;27;20575;-59
2022/12/21 14:16:00;;;;;;;20.45;14.05;;;;;;;;;;5129263;27;20047;-57
2022/12/21 14:18:40;;;;;;;21.40;15.25;;;;;;;;;;5129805;27;20696;-59
2022/12/21 14:21:08;;;;;;;24.25;14.93;;;;;;;;;;5135985;27;20503;-58
2022/12/21 14:23:35;;;;;;;25.48;15.38;;;;;;;;;;5135492;27;20031;-59
2022/12/21 14:26:01;;;;;;;24.45;16.92;;;;;;;;;;5133318;27;20482;-59
2022/12/21 14:28:31;;;;;;;24.73;17.60;;;;;;;;;;5138040;27;20099;-59
2022/12/21 14:30:57;;;;;;;26.63;17.17;;;;;;;;;;5129044;27;20039;-60
2022/12/21 14:33:32;;;;;;;21.05;16.08;;;;;;;;;;5136564;27;20374;-59
2022/12/21 14:36:17;;;;;;;24.73;17.60;;;;;;;;;;5133266;27;20038;-58
2022/12/21 14:38:44;;;;;;;29.02;18.30;;;;;;;;;;5132649;27;20466;-59
2022/12/21 14:41:13;;;;;;;26.73;18.50;;;;;;;;;;5130467;27;20573;-59
2022/12/21 14:43:58;;;;;;;24.27;16.75;;;;;;;;;;5130162;27;20499;-59
2022/12/21 14:46:25;;;;;;;21.38;16.67;;;;;;;;;;5125216;27;20141;-59
2022/12/21 14:48:53;;;;;;;20.17;15.57;;;;;;;;;;5128415;27;20561;-59
2022/12/21 14:51:37;;;;;;;28.67;19.25;;;;;;;;;;5127846;27;20501;-59
2022/12/21 14:54:08;;;;;;;24.88;17.80;;;;;;;;;;5125815;27;20513;-59
2022/12/21 14:56:36;;;;;;;22.23;16.98;;;;;;;;;;5126929;27;20123;-59
2022/12/21 14:59:04;;;;;;;27.13;18.60;;;;;;;;;;5127840;27;20039;-59
2022/12/21 15:01:49;;;;;;;29.17;18.40;;;;;;;;;;5134419;27;20042;-59